Sagehen Creek Weather observations

Data are for observation ending at time listed.
 Day   Time    Ave.   Ave.  Ave.  Vector   Max.   Stn.    Total    Solar   Ave.  
  of    of     Air    Rel.  Wind   Wind    Wind   Baro.  Precip.   Rad.    Soil  
Year   Day     Temp.  Hum.  Speed  Dir.    Gust   Pres.                    Temp. 
2016   (PST)    F      %     mph   deg.    mph     mb.     in.     W/m2     F   
------------------------------------------------------------------------------
 207   19:40   60.0    54    0.0     0      0.0   839.2    3.06       1    999.0
 207   19:50   58.5    56    0.0     0      0.0   839.4    3.06       0    999.0
 207   20:00   57.1    58    0.0   237      0.4   839.6    3.06       0    999.0
 207   20:10   56.1    58    0.3   230      1.4   839.4    3.06       0    999.0
 207   20:20   55.0    59    0.5   252      1.1   839.5    3.06       0    999.0
 207   20:30   54.0    60    0.1   207      0.7   839.6    3.06       0    999.0
 207   20:40   53.2    59    0.4   258      1.2   839.9    3.06       0    999.0
 207   20:50   52.1    60    0.2   273      1.0   839.9    3.06       0    999.0
 207   21:00   51.4    59    0.7   235      1.9   839.9    3.06       0    999.0
 207   21:10   50.6    59    0.8   260      2.0   839.5    3.06       0    999.0
 207   21:20   50.0    63    0.8   241      1.7   839.7    3.06       0    999.0
 207   21:30   48.9    65    0.2   228      0.7   839.9    3.06       0    999.0
 207   21:40   48.3    65    0.4   252      0.8   839.6    3.06       0    999.0
 207   21:50   47.8    64    0.9   264      1.5   839.6    3.06       0    999.0
 207   22:00   47.4    67    0.3   237      0.9   839.6    3.06       0    999.0
 207   22:10   46.7    67    0.7   252      1.2   840.1    3.06       0    999.0
 207   22:20   46.0    68    0.4   234      1.4   839.9    3.06       0    999.0
 207   22:30   45.5    69    0.1   228      0.8   839.6    3.06       0    999.0
 207   22:40   45.1    69    0.4   254      1.1   840.0    3.06       0    999.0
 207   22:50   44.7    68    0.8   253      1.3   840.0    3.06       0    999.0
 207   23:00   44.2    72    0.4   245      1.1   840.0    3.06       0    999.0
 207   23:10   43.6    70    0.7   260      1.1   840.1    3.06       0    999.0
 207   23:20   43.4    69    1.1   260      1.8   840.0    3.06       0    999.0
 207   23:30   42.9    73    0.5   235      1.1   839.9    3.06       0    999.0
 207   23:40   42.2    74    0.5   255      1.1   839.6    3.06       0    999.0
 207   23:50   42.0    73    0.7   261      1.2   839.6    3.06       0    999.0
 208    0:00   41.7    73    0.7   254      1.0   839.5    3.06       0    999.0
 208    0:10   41.4    72    0.8   260      1.2   839.9    3.06       0    999.0
 208    0:20   41.0    73    0.5   241      1.3   839.8    3.06       0    999.0
 208    0:30   40.4    75    0.6   260      1.1   839.8    3.06       0    999.0
 208    0:40   40.1    75    0.8   257      1.7   839.8    3.06       0    999.0
 208    0:50   39.8    74    0.9   264      1.4   839.7    3.06       0    999.0
 208    1:00   39.6    74    0.8   254      1.1   839.7    3.06       0    999.0
 208    1:10   39.2    76    0.7   254      1.0   840.0    3.06       0    999.0
 208    1:20   38.8    76    1.0   256      1.6   839.8    3.06       0    999.0
 208    1:30   38.5    76    0.9   260      1.3   839.5    3.06       0    999.0
 208    1:40   38.3    76    0.9   258      1.2   839.8    3.06       0    999.0
 208    1:50   38.0    75    1.0   261      1.3   839.7    3.06       0    999.0
 208    2:00   37.7    75    1.0   255      1.5   839.6    3.06       0    999.0
 208    2:10   37.3    77    0.8   254      1.2   839.9    3.06       0    999.0
 208    2:20   37.0    76    1.0   260      1.4   839.9    3.06       0    999.0
 208    2:30   36.7    78    0.7   254      1.5   839.9    3.06       0    999.0
 208    2:40   36.4    77    0.7   268      1.2   839.7    3.06       0    999.0
 208    2:50   36.2    77    1.1   265      1.5   839.8    3.06       0    999.0
 208    3:00   35.8    78    1.1   259      1.6   839.9    3.06       0    999.0
 208    3:10   35.5    80    0.4   264      1.3   839.9    3.06       0    999.0
 208    3:20   35.3    79    0.9   260      1.6   839.8    3.06       0    999.0
 208    3:30   35.1    79    0.3   268      1.5   839.8    3.06       0    999.0
 208    3:40   34.9    80    0.7   270      1.9   839.9    3.06       0    999.0
 208    3:50   34.8    80    0.5   266      0.9   839.8    3.06       0    999.0
 208    4:00   34.5    80    0.7   257      1.3   839.6    3.06       0    999.0
 208    4:10   34.3    81    0.8   264      1.3   839.8    3.06       0    999.0
 208    4:20   34.1    82    0.8   257      1.2   839.9    3.06       0    999.0
 208    4:30   34.0    82    0.7   266      1.3   839.9    3.06       0    999.0
 208    4:40   33.7    82    0.8   263      1.5   839.5    3.06       0    999.0
 208    4:50   33.4    83    0.5   263      1.2   839.7    3.06       1    999.0
 208    5:00   33.4    83    1.1   252      1.5   839.9    3.06       3    999.0
 208    5:10   33.2    84    0.8   259      1.2   840.0    3.06       5    999.0
 208    5:20   33.2    83    0.9   266      1.1   840.0    3.06       9    999.0
 208    5:30   33.2    83    0.6   256      1.0   840.0    3.06      16    999.0
 208    5:40   33.4    83    0.6   265      1.4   839.9    3.06      60    999.0
 208    5:50   34.3    82    0.0   259      0.4   840.0    3.06     106    999.0
 208    6:00   35.5    79    0.1   281      0.9   840.1    3.06     144    999.0
 208    6:10   37.2    76    0.1   274      0.9   839.6    3.06     178    999.0
 208    6:20   39.4    74    0.1   272      0.7   839.9    3.06     210    999.0
 208    6:30   41.4    72    0.0   267      0.6   840.1    3.06     242    999.0
 208    6:40   43.5    70    0.0   264      0.7   840.2    3.06     274    999.0
 208    6:50   46.3    66    0.0     0      0.0   840.0    3.06     304    999.0
 208    7:00   48.4    65    0.0   270      0.2   839.7    3.06     338    999.0
 208    7:10   49.9    65    0.1   274      0.7   840.3    3.06     371    999.0
 208    7:20   53.5    60    0.0     0      0.0   840.1    3.06     406    999.0
 208    7:30   57.0    58    0.0     0      0.0   840.0    3.06     436    999.0
 208    7:40   61.3    54    0.0     0      0.0   840.1    3.06     471    999.0
 208    7:50   65.9    48    0.2   106      0.9   840.1    3.06     505    999.0
 208    8:00   68.8    35    0.5   101      2.2   840.1    3.06     535    999.0
 208    8:10   66.2    37    3.0    95      5.0   839.9    3.06     566    999.0
 208    8:20   66.5    43    2.5    92      5.2   839.9    3.06     598    999.0
 208    8:30   67.1    41    3.2    91      5.3   840.0    3.06     631    999.0
 208    8:40   67.8    40    2.4    96      5.3   840.1    3.06     662    999.0
 208    8:50   68.9    40    2.2    93      5.0   840.1    3.06     688    999.0
 208    9:00   70.0    37    3.0    93      5.6   840.1    3.06     715    999.0
 208    9:10   70.6    35    2.7    89      5.6   839.6    3.06     740    999.0
 208    9:20   71.9    30    2.6    86      6.5   839.8    3.06     770    999.0
 208    9:30   73.4    27    2.7    87      5.3   840.0    3.06     792    999.0
 208    9:40   75.2    24    2.5    89      6.3   839.9    3.06     816    999.0
 208    9:50   76.3    24    2.1    98      5.7   839.9    3.06     840    999.0
 208   10:00   77.8    19    3.0    76      7.3   839.9    3.06     835    999.0
 208   10:10   79.2    20    2.6    65      5.8   839.5    3.05     879    999.0
 208   10:20   79.2    20    2.6   138      4.9   839.5    3.05     894    999.0
 208   10:30   79.7    18    2.8    74      5.5   839.5    3.05     902    999.0
 208   10:40   80.5    19    1.8   135      5.8   839.8    3.05     900    999.0
 208   10:50   81.2    19    2.4    81      6.5   839.7    3.05     914    999.0
 208   11:00   81.1    17    2.6    84      9.5   839.6    3.05     939    999.0
 208   11:10   82.0    18    2.4   119      6.9   839.7    3.05     949    999.0
 208   11:20   82.7    15    2.9    90      9.0   839.7    3.05     954    999.0
 208   11:30   83.4    12    2.6   147      4.6   839.7    3.05     892    999.0
 208   11:40   83.5    12    2.2   254      6.1   839.5    3.05     944    999.0
 208   11:50   84.2    11    1.5   200      3.9   839.3    3.05     947    999.0
 208   12:00   85.0    12    1.9   224      5.2   839.1    3.05     932    999.0
 208   12:10   84.9    11    1.9   217      6.0   839.1    3.05     953    999.0
 208   12:20   85.2    11    1.7   207      5.6   839.3    3.05     967    999.0
 208   12:30   85.4    10    1.7   249      7.3   839.5    3.05     963    999.0
 208   12:40   86.0    12    1.9   217      5.6   839.4    3.05     977    999.0
 208   12:50   86.0    10    1.4   215      3.9   839.1    3.05     962    999.0
 208   13:00   86.2    10    2.2   227      4.5   838.9    3.05     963    999.0
 208   13:10   85.9     9    2.5   234      6.2   839.0    3.05     973    999.0
 208   13:20   86.4     9    2.2   144      6.6   839.1    3.05     945    999.0
 208   13:30   86.7    10    2.4   175      6.9   839.2    3.05     921    999.0
 208   13:40   87.0    11    2.0   246      4.8   839.2    3.05     908    999.0
 208   13:50   87.8    11    1.9   259      4.8   839.2    3.05     899    999.0
 208   14:00   87.5    10    2.2   215      6.3   839.2    3.05     884    999.0
 208   14:10   87.4    12    2.1   200      7.2   839.0    3.05     883    999.0
 208   14:20   88.1    10    2.0   285      5.7   838.9    3.05     873    999.0
 208   14:30   87.5    11    2.7   250      5.9   838.8    3.05     861    999.0
 208   14:40   87.5    10    1.5   225      3.9   839.2    3.05     841    999.0
 208   14:50   87.8    11    1.7   250      5.5   839.0    3.05     813    999.0
 208   15:00   87.9    11    2.0   238      4.5   838.8    3.05     801    999.0
 208   15:10   87.5    10    2.4   263      5.8   839.0    3.05     775    999.0
 208   15:20   86.9    10    2.0   196      5.3   838.9    3.05     745    999.0
 208   15:30   87.7     9    2.1   276      4.3   838.8    3.05     720    999.0
 208   15:40   86.8    10    1.7   211      5.9   839.1    3.05     685    999.0
 208   15:50   86.8    10    2.3   237      4.9   839.0    3.05     657    999.0
 208   16:00   85.9    10    2.0   196      6.6   838.9    3.06     619    999.0
 208   16:10   85.7    10    2.5   246      5.8   838.7    3.05     574    999.0
 208   16:20   85.4    10    2.5   244      8.3   838.7    3.06     542    999.0
 208   16:30   85.4    11    1.7   259      7.0   838.6    3.05     514    999.0
 208   16:40   85.9    11    1.6   239      4.7   839.1    3.06     492    999.0
 208   16:50   85.2    10    2.1   270      4.7   839.0    3.06     440    999.0
 208   17:00   84.8    10    1.1   209      5.6   838.9    3.06     405    999.0
 208   17:10   84.2    11    1.7   218      4.4   838.5    3.06     371    999.0
 208   17:20   82.3    13    1.8   229      5.5   838.6    3.06     322    999.0
 208   17:30   80.6    14    1.6   235      3.5   838.7    3.06      66    999.0
 208   17:40   79.6    15    1.7   248      5.5   838.9    3.06      73    999.0
 208   17:50   78.7    16    0.4   226      1.5   838.9    3.06      37    999.0
 208   18:00   77.4    19    1.2   252      4.4   838.9    3.06      28    999.0
 208   18:10   75.9    21    0.6   235      1.9   838.9    3.06      25    999.0
 208   18:20   73.8    27    0.2   260      1.3   838.8    3.06      22    999.0
 208   18:30   71.7    28    0.8   280      1.7   838.6    3.06      19    999.0
 208   18:40   70.1    28    1.1   283      1.6   839.0    3.06      16    999.0
 208   18:50   68.7    29    1.2   277      1.7   839.0    3.06      13    999.0
 208   19:00   66.8    34    1.1   267      1.5   839.0    3.06       9    999.0
 208   19:10   64.8    38    0.7   260      1.2   838.9    3.06       6    999.0
 208   19:20   62.9    43    0.3   251      1.2   838.8    3.06       3    999.0
 208   19:30   61.3    42    0.7   264      1.3   838.7    3.06       2    999.0

Return to Sagehen Creek graphs page.


Western Regional Climate Center,wrcc@dri.edu